sensor_id;sensor_type;location;lat;lon;timestamp;pressure;altitude;pressure_sealevel;temperature
64947;BMP280;51469;52.150;4.682;2023-02-01T00:01:32;102214.53;;;13.31
64947;BMP280;51469;52.150;4.682;2023-02-01T00:03:57;102215.63;;;13.27
64947;BMP280;51469;52.150;4.682;2023-02-01T00:06:22;102219.63;;;13.29
64947;BMP280;51469;52.150;4.682;2023-02-01T00:08:48;102209.09;;;13.35
64947;BMP280;51469;52.150;4.682;2023-02-01T00:11:14;102208.13;;;13.43
64947;BMP280;51469;52.150;4.682;2023-02-01T00:13:41;102196.72;;;13.44
64947;BMP280;51469;52.150;4.682;2023-02-01T00:16:07;102195.75;;;13.37
64947;BMP280;51469;52.150;4.682;2023-02-01T00:18:33;102209.38;;;13.11
64947;BMP280;51469;52.150;4.682;2023-02-01T00:20:58;102216.03;;;13.10
64947;BMP280;51469;52.150;4.682;2023-02-01T00:23:24;102223.69;;;13.01
64947;BMP280;51469;52.150;4.682;2023-02-01T00:25:49;102225.91;;;13.11
64947;BMP280;51469;52.150;4.682;2023-02-01T00:28:15;102215.09;;;12.87
64947;BMP280;51469;52.150;4.682;2023-02-01T00:30:40;102201.53;;;12.78
64947;BMP280;51469;52.150;4.682;2023-02-01T00:33:05;102208.59;;;12.95
64947;BMP280;51469;52.150;4.682;2023-02-01T00:35:33;102204.63;;;13.11
64947;BMP280;51469;52.150;4.682;2023-02-01T00:37:59;102209.28;;;13.07
64947;BMP280;51469;52.150;4.682;2023-02-01T00:40:25;102216.16;;;12.82
64947;BMP280;51469;52.150;4.682;2023-02-01T00:42:50;102215.97;;;12.91
64947;BMP280;51469;52.150;4.682;2023-02-01T00:45:16;102221.66;;;12.98
64947;BMP280;51469;52.150;4.682;2023-02-01T00:47:41;102209.50;;;12.83
64947;BMP280;51469;52.150;4.682;2023-02-01T00:50:07;102193.53;;;12.73
64947;BMP280;51469;52.150;4.682;2023-02-01T00:52:32;102189.41;;;12.67
64947;BMP280;51469;52.150;4.682;2023-02-01T00:54:58;102181.47;;;12.97
64947;BMP280;51469;52.150;4.682;2023-02-01T00:57:23;102172.22;;;13.05
64947;BMP280;51469;52.150;4.682;2023-02-01T00:59:49;102190.63;;;13.01
64947;BMP280;51469;52.150;4.682;2023-02-01T01:02:14;102164.38;;;13.07
64947;BMP280;51469;52.150;4.682;2023-02-01T01:04:40;102188.44;;;12.91
64947;BMP280;51469;52.150;4.682;2023-02-01T01:07:06;102182.50;;;12.73
64947;BMP280;51469;52.150;4.682;2023-02-01T01:09:31;102188.47;;;12.75
64947;BMP280;51469;52.150;4.682;2023-02-01T01:11:59;102191.38;;;12.82
64947;BMP280;51469;52.150;4.682;2023-02-01T01:14:30;102187.16;;;13.04
64947;BMP280;51469;52.150;4.682;2023-02-01T01:16:55;102192.97;;;13.18
64947;BMP280;51469;52.150;4.682;2023-02-01T01:19:21;102194.56;;;13.19
64947;BMP280;51469;52.150;4.682;2023-02-01T01:21:46;102184.28;;;13.16
64947;BMP280;51469;52.150;4.682;2023-02-01T01:24:12;102185.28;;;13.08
64947;BMP280;51469;52.150;4.682;2023-02-01T01:26:37;102180.22;;;13.29
64947;BMP280;51469;52.150;4.682;2023-02-01T01:29:03;102177.53;;;13.32
64947;BMP280;51469;52.150;4.682;2023-02-01T01:31:30;102168.91;;;13.34
64947;BMP280;51469;52.150;4.682;2023-02-01T01:33:57;102171.22;;;13.13
64947;BMP280;51469;52.150;4.682;2023-02-01T01:36:25;102164.22;;;13.00
64947;BMP280;51469;52.150;4.682;2023-02-01T01:38:51;102174.97;;;13.24
64947;BMP280;51469;52.150;4.682;2023-02-01T01:41:19;102190.97;;;13.34
64947;BMP280;51469;52.150;4.682;2023-02-01T01:43:58;102197.94;;;13.28
64947;BMP280;51469;52.150;4.682;2023-02-01T01:46:25;102187.47;;;13.18
64947;BMP280;51469;52.150;4.682;2023-02-01T01:51:44;102184.00;;;13.40
64947;BMP280;51469;52.150;4.682;2023-02-01T01:54:56;102186.63;;;13.52
64947;BMP280;51469;52.150;4.682;2023-02-01T01:57:03;102160.03;;;13.63
64947;BMP280;51469;52.150;4.682;2023-02-01T01:59:31;102166.44;;;13.67
64947;BMP280;51469;52.150;4.682;2023-02-01T02:01:57;102181.69;;;13.42
64947;BMP280;51469;52.150;4.682;2023-02-01T02:04:23;102173.78;;;13.40
64947;BMP280;51469;52.150;4.682;2023-02-01T02:09:17;102166.16;;;13.53
64947;BMP280;51469;52.150;4.682;2023-02-01T02:11:43;102158.31;;;13.17
64947;BMP280;51469;52.150;4.682;2023-02-01T02:14:10;102150.31;;;13.50
64947;BMP280;51469;52.150;4.682;2023-02-01T02:19:34;102153.69;;;13.59
64947;BMP280;51469;52.150;4.682;2023-02-01T02:33:19;102143.47;;;13.63
64947;BMP280;51469;52.150;4.682;2023-02-01T02:36:08;102153.97;;;13.35
64947;BMP280;51469;52.150;4.682;2023-02-01T02:38:50;102149.16;;;13.32
64947;BMP280;51469;52.150;4.682;2023-02-01T02:41:33;102148.16;;;13.40
64947;BMP280;51469;52.150;4.682;2023-02-01T02:44:48;102144.94;;;13.57
64947;BMP280;51469;52.150;4.682;2023-02-01T02:50:15;102119.75;;;13.36
64947;BMP280;51469;52.150;4.682;2023-02-01T02:53:17;102097.53;;;13.29
64947;BMP280;51469;52.150;4.682;2023-02-01T02:56:05;102118.44;;;13.49
64947;BMP280;51469;52.150;4.682;2023-02-01T02:58:50;102118.63;;;13.59
64947;BMP280;51469;52.150;4.682;2023-02-01T03:01:35;102099.56;;;13.32
64947;BMP280;51469;52.150;4.682;2023-02-01T03:04:19;102115.69;;;13.49
64947;BMP280;51469;52.150;4.682;2023-02-01T03:06:46;102116.84;;;13.29
64947;BMP280;51469;52.150;4.682;2023-02-01T03:09:21;102099.84;;;13.46
64947;BMP280;51469;52.150;4.682;2023-02-01T03:11:51;102113.47;;;13.39
64947;BMP280;51469;52.150;4.682;2023-02-01T03:14:37;102112.91;;;12.92
64947;BMP280;51469;52.150;4.682;2023-02-01T03:17:10;102098.56;;;13.21
64947;BMP280;51469;52.150;4.682;2023-02-01T03:19:39;102122.19;;;13.22
64947;BMP280;51469;52.150;4.682;2023-02-01T03:22:15;102110.66;;;12.97
64947;BMP280;51469;52.150;4.682;2023-02-01T03:24:48;102109.25;;;13.07
64947;BMP280;51469;52.150;4.682;2023-02-01T03:27:19;102106.47;;;13.03
64947;BMP280;51469;52.150;4.682;2023-02-01T03:32:21;102100.59;;;13.43
64947;BMP280;51469;52.150;4.682;2023-02-01T03:34:47;102102.47;;;13.20
64947;BMP280;51469;52.150;4.682;2023-02-01T03:37:19;102104.75;;;13.37
64947;BMP280;51469;52.150;4.682;2023-02-01T03:39:49;102088.16;;;13.33
64947;BMP280;51469;52.150;4.682;2023-02-01T03:42:26;102109.25;;;13.45
64947;BMP280;51469;52.150;4.682;2023-02-01T03:47:29;102122.75;;;13.50
64947;BMP280;51469;52.150;4.682;2023-02-01T03:49:58;102111.28;;;13.67
64947;BMP280;51469;52.150;4.682;2023-02-01T03:52:32;102108.38;;;13.60
64947;BMP280;51469;52.150;4.682;2023-02-01T03:55:00;102119.59;;;13.48
64947;BMP280;51469;52.150;4.682;2023-02-01T03:57:30;102134.53;;;13.47
64947;BMP280;51469;52.150;4.682;2023-02-01T04:00:05;102123.78;;;13.42
64947;BMP280;51469;52.150;4.682;2023-02-01T04:02:30;102107.81;;;13.51
64947;BMP280;51469;52.150;4.682;2023-02-01T04:04:56;102110.38;;;13.63
64947;BMP280;51469;52.150;4.682;2023-02-01T04:07:21;102129.00;;;13.47
64947;BMP280;51469;52.150;4.682;2023-02-01T04:09:47;102117.66;;;13.71
64947;BMP280;51469;52.150;4.682;2023-02-01T04:12:12;102105.91;;;13.74
64947;BMP280;51469;52.150;4.682;2023-02-01T04:14:37;102114.59;;;13.34
64947;BMP280;51469;52.150;4.682;2023-02-01T04:17:03;102114.72;;;13.41
64947;BMP280;51469;52.150;4.682;2023-02-01T04:19:28;102124.16;;;13.02
64947;BMP280;51469;52.150;4.682;2023-02-01T04:21:53;102122.03;;;12.96
64947;BMP280;51469;52.150;4.682;2023-02-01T04:24:18;102121.94;;;12.92
64947;BMP280;51469;52.150;4.682;2023-02-01T04:26:44;102111.84;;;12.81
64947;BMP280;51469;52.150;4.682;2023-02-01T04:29:09;102112.75;;;12.85
64947;BMP280;51469;52.150;4.682;2023-02-01T04:31:35;102107.13;;;13.16
64947;BMP280;51469;52.150;4.682;2023-02-01T04:34:01;102104.50;;;13.04
64947;BMP280;51469;52.150;4.682;2023-02-01T04:36:26;102106.50;;;12.88
64947;BMP280;51469;52.150;4.682;2023-02-01T04:38:52;102105.69;;;12.87
64947;BMP280;51469;52.150;4.682;2023-02-01T04:41:18;102095.91;;;12.71
64947;BMP280;51469;52.150;4.682;2023-02-01T04:43:47;102095.78;;;12.67
64947;BMP280;51469;52.150;4.682;2023-02-01T04:46:12;102093.28;;;12.59
64947;BMP280;51469;52.150;4.682;2023-02-01T04:48:38;102093.28;;;12.59
64947;BMP280;51469;52.150;4.682;2023-02-01T04:51:03;102085.09;;;12.47
64947;BMP280;51469;52.150;4.682;2023-02-01T04:53:28;102115.44;;;12.66
64947;BMP280;51469;52.150;4.682;2023-02-01T04:55:55;102107.72;;;12.71
64947;BMP280;51469;52.150;4.682;2023-02-01T04:58:20;102106.53;;;12.72
64947;BMP280;51469;52.150;4.682;2023-02-01T05:00:46;102097.88;;;12.89
64947;BMP280;51469;52.150;4.682;2023-02-01T05:03:11;102086.59;;;12.79
64947;BMP280;51469;52.150;4.682;2023-02-01T05:05:36;102085.28;;;12.88
64947;BMP280;51469;52.150;4.682;2023-02-01T05:08:02;102084.63;;;12.95
64947;BMP280;51469;52.150;4.682;2023-02-01T05:10:27;102088.25;;;13.18
64947;BMP280;51469;52.150;4.682;2023-02-01T05:12:53;102105.38;;;13.08
64947;BMP280;51469;52.150;4.682;2023-02-01T05:15:37;102105.78;;;12.91
64947;BMP280;51469;52.150;4.682;2023-02-01T05:18:02;102108.81;;;12.86
64947;BMP280;51469;52.150;4.682;2023-02-01T05:20:28;102110.03;;;12.69
64947;BMP280;51469;52.150;4.682;2023-02-01T05:22:53;102120.56;;;12.83
64947;BMP280;51469;52.150;4.682;2023-02-01T05:25:18;102124.63;;;12.89
64947;BMP280;51469;52.150;4.682;2023-02-01T05:27:44;102125.16;;;12.79
64947;BMP280;51469;52.150;4.682;2023-02-01T05:30:10;102139.66;;;12.91
64947;BMP280;51469;52.150;4.682;2023-02-01T05:32:35;102131.59;;;12.83
64947;BMP280;51469;52.150;4.682;2023-02-01T05:35:01;102130.00;;;13.01
64947;BMP280;51469;52.150;4.682;2023-02-01T05:37:27;102123.00;;;13.22
64947;BMP280;51469;52.150;4.682;2023-02-01T05:39:52;102131.31;;;13.07
64947;BMP280;51469;52.150;4.682;2023-02-01T05:42:18;102119.97;;;13.08
64947;BMP280;51469;52.150;4.682;2023-02-01T05:44:44;102126.06;;;12.83
64947;BMP280;51469;52.150;4.682;2023-02-01T05:47:09;102121.56;;;12.94
64947;BMP280;51469;52.150;4.682;2023-02-01T05:49:35;102116.69;;;12.68
64947;BMP280;51469;52.150;4.682;2023-02-01T05:52:01;102115.34;;;12.62
64947;BMP280;51469;52.150;4.682;2023-02-01T05:54:26;102126.31;;;12.59
64947;BMP280;51469;52.150;4.682;2023-02-01T05:56:52;102112.28;;;12.64
64947;BMP280;51469;52.150;4.682;2023-02-01T05:59:17;102116.06;;;12.94
64947;BMP280;51469;52.150;4.682;2023-02-01T06:01:42;102115.88;;;12.83
64947;BMP280;51469;52.150;4.682;2023-02-01T06:04:08;102118.84;;;13.13
64947;BMP280;51469;52.150;4.682;2023-02-01T06:06:33;102109.84;;;13.35
64947;BMP280;51469;52.150;4.682;2023-02-01T06:08:59;102117.53;;;12.88
64947;BMP280;51469;52.150;4.682;2023-02-01T06:11:25;102135.06;;;12.99
64947;BMP280;51469;52.150;4.682;2023-02-01T06:13:51;102126.28;;;13.28
64947;BMP280;51469;52.150;4.682;2023-02-01T06:16:16;102154.38;;;13.18
64947;BMP280;51469;52.150;4.682;2023-02-01T06:18:42;102140.00;;;12.90
64947;BMP280;51469;52.150;4.682;2023-02-01T06:21:08;102138.63;;;12.80
64947;BMP280;51469;52.150;4.682;2023-02-01T06:23:34;102116.88;;;12.94
64947;BMP280;51469;52.150;4.682;2023-02-01T06:26:04;102134.78;;;12.85
64947;BMP280;51469;52.150;4.682;2023-02-01T06:28:31;102130.13;;;12.89
64947;BMP280;51469;52.150;4.682;2023-02-01T06:30:57;102131.56;;;12.64
64947;BMP280;51469;52.150;4.682;2023-02-01T06:33:24;102136.78;;;13.03
64947;BMP280;51469;52.150;4.682;2023-02-01T06:35:56;102139.00;;;12.98
64947;BMP280;51469;52.150;4.682;2023-02-01T06:38:22;102135.88;;;13.18
64947;BMP280;51469;52.150;4.682;2023-02-01T06:40:52;102134.69;;;13.16
64947;BMP280;51469;52.150;4.682;2023-02-01T06:43:17;102143.31;;;12.99
64947;BMP280;51469;52.150;4.682;2023-02-01T06:45:43;102123.84;;;12.88
64947;BMP280;51469;52.150;4.682;2023-02-01T06:48:08;102139.84;;;12.83
64947;BMP280;51469;52.150;4.682;2023-02-01T06:50:33;102145.06;;;12.88
64947;BMP280;51469;52.150;4.682;2023-02-01T06:53:00;102141.91;;;13.24
64947;BMP280;51469;52.150;4.682;2023-02-01T06:55:25;102129.13;;;12.97
64947;BMP280;51469;52.150;4.682;2023-02-01T06:57:53;102144.78;;;13.12
64947;BMP280;51469;52.150;4.682;2023-02-01T07:00:19;102142.72;;;13.24
64947;BMP280;51469;52.150;4.682;2023-02-01T07:02:45;102138.44;;;13.08
64947;BMP280;51469;52.150;4.682;2023-02-01T07:05:10;102141.31;;;13.53
64947;BMP280;51469;52.150;4.682;2023-02-01T07:07:35;102150.31;;;13.50
64947;BMP280;51469;52.150;4.682;2023-02-01T07:10:01;102146.94;;;13.37
64947;BMP280;51469;52.150;4.682;2023-02-01T07:12:26;102143.22;;;13.11
64947;BMP280;51469;52.150;4.682;2023-02-01T07:14:51;102155.97;;;13.19
64947;BMP280;51469;52.150;4.682;2023-02-01T07:17:17;102149.16;;;13.32
64947;BMP280;51469;52.150;4.682;2023-02-01T07:19:42;102145.69;;;13.35
64947;BMP280;51469;52.150;4.682;2023-02-01T07:22:07;102134.84;;;13.23
64947;BMP280;51469;52.150;4.682;2023-02-01T07:24:34;102129.31;;;13.23
64947;BMP280;51469;52.150;4.682;2023-02-01T07:26:59;102126.13;;;13.21
64947;BMP280;51469;52.150;4.682;2023-02-01T07:29:24;102136.03;;;13.25
64947;BMP280;51469;52.150;4.682;2023-02-01T07:31:50;102137.78;;;13.14
64947;BMP280;51469;52.150;4.682;2023-02-01T07:34:15;102123.41;;;13.05
64947;BMP280;51469;52.150;4.682;2023-02-01T07:36:40;102136.25;;;13.17
64947;BMP280;51469;52.150;4.682;2023-02-01T07:39:06;102129.00;;;12.90
64947;BMP280;51469;52.150;4.682;2023-02-01T07:41:32;102158.84;;;13.07
64947;BMP280;51469;52.150;4.682;2023-02-01T07:43:57;102153.97;;;13.16
64947;BMP280;51469;52.150;4.682;2023-02-01T07:46:23;102154.97;;;13.08
64947;BMP280;51469;52.150;4.682;2023-02-01T07:48:48;102160.56;;;13.11
64947;BMP280;51469;52.150;4.682;2023-02-01T07:51:16;102153.50;;;12.95
64947;BMP280;51469;52.150;4.682;2023-02-01T07:53:42;102165.34;;;12.80
64947;BMP280;51469;52.150;4.682;2023-02-01T07:56:14;102155.81;;;13.12
64947;BMP280;51469;52.150;4.682;2023-02-01T07:58:39;102167.97;;;13.26
64947;BMP280;51469;52.150;4.682;2023-02-01T08:01:05;102155.59;;;13.36
64947;BMP280;51469;52.150;4.682;2023-02-01T08:03:53;102158.31;;;13.17
64947;BMP280;51469;52.150;4.682;2023-02-01T08:06:20;102159.78;;;13.11
64947;BMP280;51469;52.150;4.682;2023-02-01T08:08:46;102157.66;;;13.23
64947;BMP280;51469;52.150;4.682;2023-02-01T08:11:13;102146.81;;;12.96
64947;BMP280;51469;52.150;4.682;2023-02-01T08:13:39;102157.00;;;13.30
64947;BMP280;51469;52.150;4.682;2023-02-01T08:16:07;102151.72;;;13.40
64947;BMP280;51469;52.150;4.682;2023-02-01T08:18:33;102144.81;;;13.31
64947;BMP280;51469;52.150;4.682;2023-02-01T08:21:12;102148.16;;;13.21
64947;BMP280;51469;52.150;4.682;2023-02-01T08:23:39;102125.25;;;13.17
64947;BMP280;51469;52.150;4.682;2023-02-01T08:26:12;102122.13;;;13.37
64947;BMP280;51469;52.150;4.682;2023-02-01T08:28:41;102133.50;;;13.17
64947;BMP280;51469;52.150;4.682;2023-02-01T08:31:09;102119.44;;;13.41
64947;BMP280;51469;52.150;4.682;2023-02-01T08:33:35;102131.53;;;13.55
64947;BMP280;51469;52.150;4.682;2023-02-01T08:36:03;102125.94;;;13.71
64947;BMP280;51469;52.150;4.682;2023-02-01T08:38:29;102114.00;;;13.86
64947;BMP280;51469;52.150;4.682;2023-02-01T08:40:55;102135.75;;;13.91
64947;BMP280;51469;52.150;4.682;2023-02-01T08:43:20;102131.00;;;13.69
64947;BMP280;51469;52.150;4.682;2023-02-01T08:45:46;102132.13;;;13.87
64947;BMP280;51469;52.150;4.682;2023-02-01T08:48:11;102132.63;;;14.15
64947;BMP280;51469;52.150;4.682;2023-02-01T08:50:36;102144.03;;;13.91
64947;BMP280;51469;52.150;4.682;2023-02-01T08:53:02;102112.03;;;14.09
64947;BMP280;51469;52.150;4.682;2023-02-01T08:55:27;102109.31;;;14.12
64947;BMP280;51469;52.150;4.682;2023-02-01T08:57:53;102110.75;;;14.29
64947;BMP280;51469;52.150;4.682;2023-02-01T09:02:55;102119.03;;;14.29
64947;BMP280;51469;52.150;4.682;2023-02-01T09:05:20;102111.31;;;14.38
64947;BMP280;51469;52.150;4.682;2023-02-01T09:07:47;102106.28;;;14.47
64947;BMP280;51469;52.150;4.682;2023-02-01T09:10:12;102108.75;;;14.52
64947;BMP280;51469;52.150;4.682;2023-02-01T09:12:38;102100.88;;;14.54
64947;BMP280;51469;52.150;4.682;2023-02-01T09:15:03;102106.53;;;14.61
64947;BMP280;51469;52.150;4.682;2023-02-01T09:17:32;102113.44;;;14.74
64947;BMP280;51469;52.150;4.682;2023-02-01T09:19:57;102103.34;;;14.59
64947;BMP280;51469;52.150;4.682;2023-02-01T09:22:23;102104.09;;;14.56
64947;BMP280;51469;52.150;4.682;2023-02-01T09:24:48;102108.34;;;14.50
64947;BMP280;51469;52.150;4.682;2023-02-01T09:27:14;102117.41;;;14.50
64947;BMP280;51469;52.150;4.682;2023-02-01T09:29:39;102118.56;;;14.23
64947;BMP280;51469;52.150;4.682;2023-02-01T09:32:04;102106.69;;;14.19
64947;BMP280;51469;52.150;4.682;2023-02-01T09:34:31;102143.88;;;14.29
64947;BMP280;51469;52.150;4.682;2023-02-01T09:36:57;102117.88;;;14.30
64947;BMP280;51469;52.150;4.682;2023-02-01T09:39:22;102129.88;;;14.41
64947;BMP280;51469;52.150;4.682;2023-02-01T09:42:15;102102.88;;;14.27
64947;BMP280;51469;52.150;4.682;2023-02-01T09:47:26;102125.31;;;14.52
64947;BMP280;51469;52.150;4.682;2023-02-01T09:50:13;102117.53;;;14.09
64947;BMP280;51469;52.150;4.682;2023-02-01T09:53:04;102113.81;;;13.98
64947;BMP280;51469;52.150;4.682;2023-02-01T09:55:40;102100.25;;;14.12
64947;BMP280;51469;52.150;4.682;2023-02-01T09:58:14;102120.50;;;13.97
64947;BMP280;51469;52.150;4.682;2023-02-01T10:00:50;102117.25;;;13.91
64947;BMP280;51469;52.150;4.682;2023-02-01T10:03:16;102129.34;;;13.64
64947;BMP280;51469;52.150;4.682;2023-02-01T10:05:57;102127.84;;;13.67
64947;BMP280;51469;52.150;4.682;2023-02-01T10:19:56;102104.34;;;14.21
64947;BMP280;51469;52.150;4.682;2023-02-01T10:25:26;102116.53;;;14.43
64947;BMP280;51469;52.150;4.682;2023-02-01T10:27:54;102118.22;;;14.51
64947;BMP280;51469;52.150;4.682;2023-02-01T10:30:25;102103.22;;;14.52
64947;BMP280;51469;52.150;4.682;2023-02-01T10:32:56;102119.72;;;14.45
64947;BMP280;51469;52.150;4.682;2023-02-01T10:35:27;102123.69;;;14.47
64947;BMP280;51469;52.150;4.682;2023-02-01T10:37:54;102119.47;;;14.31
64947;BMP280;51469;52.150;4.682;2023-02-01T10:40:24;102114.94;;;14.45
64947;BMP280;51469;52.150;4.682;2023-02-01T10:42:57;102106.03;;;14.29
64947;BMP280;51469;52.150;4.682;2023-02-01T10:45:26;102126.28;;;14.63
64947;BMP280;51469;52.150;4.682;2023-02-01T10:47:53;102119.72;;;14.45
64947;BMP280;51469;52.150;4.682;2023-02-01T10:50:35;102119.25;;;14.17
64947;BMP280;51469;52.150;4.682;2023-02-01T10:55:50;102119.75;;;14.00
64947;BMP280;51469;52.150;4.682;2023-02-01T11:00:53;102124.69;;;14.36
64947;BMP280;51469;52.150;4.682;2023-02-01T11:03:30;102123.63;;;14.44
64947;BMP280;51469;52.150;4.682;2023-02-01T11:05:56;102128.72;;;14.42
64947;BMP280;51469;52.150;4.682;2023-02-01T11:08:22;102123.56;;;14.40
64947;BMP280;51469;52.150;4.682;2023-02-01T11:11:00;102104.41;;;14.25
64947;BMP280;51469;52.150;4.682;2023-02-01T11:13:31;102100.03;;;14.24
64947;BMP280;51469;52.150;4.682;2023-02-01T11:15:58;102100.16;;;14.57
64947;BMP280;51469;52.150;4.682;2023-02-01T11:18:29;102110.81;;;14.85
64947;BMP280;51469;52.150;4.682;2023-02-01T11:20:55;102105.31;;;14.88
64947;BMP280;51469;52.150;4.682;2023-02-01T11:23:28;102113.00;;;14.72
64947;BMP280;51469;52.150;4.682;2023-02-01T11:25:59;102110.75;;;14.81
64947;BMP280;51469;52.150;4.682;2023-02-01T11:28:29;102108.53;;;14.64
64947;BMP280;51469;52.150;4.682;2023-02-01T11:30:57;102117.25;;;14.40
64947;BMP280;51469;52.150;4.682;2023-02-01T11:33:28;102111.44;;;14.45
64947;BMP280;51469;52.150;4.682;2023-02-01T11:35:59;102121.19;;;14.39
64947;BMP280;51469;52.150;4.682;2023-02-01T11:38:28;102104.63;;;14.39
64947;BMP280;51469;52.150;4.682;2023-02-01T11:40:54;102095.69;;;14.23
64947;BMP280;51469;52.150;4.682;2023-02-01T11:43:25;102089.47;;;14.29
64947;BMP280;51469;52.150;4.682;2023-02-01T11:46:02;102103.53;;;14.21
64947;BMP280;51469;52.150;4.682;2023-02-01T11:48:30;102107.00;;;14.40
64947;BMP280;51469;52.150;4.682;2023-02-01T11:56:27;102099.16;;;14.42
64947;BMP280;51469;52.150;4.682;2023-02-01T11:59:19;102097.94;;;14.40
64947;BMP280;51469;52.150;4.682;2023-02-01T12:05:08;102084.84;;;14.37
64947;BMP280;51469;52.150;4.682;2023-02-01T12:07:46;102075.28;;;14.83
64947;BMP280;51469;52.150;4.682;2023-02-01T12:10:27;102059.09;;;14.55
64947;BMP280;51469;52.150;4.682;2023-02-01T12:13:14;102078.81;;;14.83
64947;BMP280;51469;52.150;4.682;2023-02-01T12:21:44;102071.03;;;14.63
64947;BMP280;51469;52.150;4.682;2023-02-01T12:32:57;102077.59;;;14.81
64947;BMP280;51469;52.150;4.682;2023-02-01T12:35:48;102050.47;;;14.60
64947;BMP280;51469;52.150;4.682;2023-02-01T12:43:18;102079.13;;;14.78
64947;BMP280;51469;52.150;4.682;2023-02-01T12:46:03;102070.28;;;14.96
64947;BMP280;51469;52.150;4.682;2023-02-01T12:48:35;102064.28;;;15.23
64947;BMP280;51469;52.150;4.682;2023-02-01T12:51:08;102068.69;;;15.31
64947;BMP280;51469;52.150;4.682;2023-02-01T12:53:54;102079.97;;;15.52
64947;BMP280;51469;52.150;4.682;2023-02-01T12:56:51;102054.66;;;15.47
64947;BMP280;51469;52.150;4.682;2023-02-01T13:01:56;102072.75;;;15.04
64947;BMP280;51469;52.150;4.682;2023-02-01T13:04:34;102063.91;;;15.25
64947;BMP280;51469;52.150;4.682;2023-02-01T13:07:07;102056.78;;;15.24
64947;BMP280;51469;52.150;4.682;2023-02-01T13:09:51;102063.25;;;15.38
64947;BMP280;51469;52.150;4.682;2023-02-01T13:12:22;102065.66;;;15.43
64947;BMP280;51469;52.150;4.682;2023-02-01T13:14:57;102056.97;;;15.41
64947;BMP280;51469;52.150;4.682;2023-02-01T13:17:27;102059.16;;;15.25
64947;BMP280;51469;52.150;4.682;2023-02-01T13:20:04;102063.38;;;15.12
64947;BMP280;51469;52.150;4.682;2023-02-01T13:22:54;102061.50;;;15.23
64947;BMP280;51469;52.150;4.682;2023-02-01T13:25:32;102062.44;;;15.34
64947;BMP280;51469;52.150;4.682;2023-02-01T13:28:04;102048.28;;;15.39
64947;BMP280;51469;52.150;4.682;2023-02-01T13:33:56;102063.50;;;14.93
64947;BMP280;51469;52.150;4.682;2023-02-01T13:37:38;102070.81;;;15.08
64947;BMP280;51469;52.150;4.682;2023-02-01T13:39:41;102064.81;;;14.69
64947;BMP280;51469;52.150;4.682;2023-02-01T13:42:13;102062.59;;;14.82
64947;BMP280;51469;52.150;4.682;2023-02-01T13:44:40;102067.56;;;14.99
64947;BMP280;51469;52.150;4.682;2023-02-01T13:47:41;102059.50;;;14.87
64947;BMP280;51469;52.150;4.682;2023-02-01T13:53:04;102072.13;;;14.88
64947;BMP280;51469;52.150;4.682;2023-02-01T13:55:33;102077.81;;;14.39
64947;BMP280;51469;52.150;4.682;2023-02-01T13:58:20;102065.50;;;14.63
64947;BMP280;51469;52.150;4.682;2023-02-01T14:00:47;102053.63;;;14.92
64947;BMP280;51469;52.150;4.682;2023-02-01T14:03:42;102081.94;;;14.82
64947;BMP280;51469;52.150;4.682;2023-02-01T14:06:39;102060.06;;;14.70
64947;BMP280;51469;52.150;4.682;2023-02-01T14:09:15;102073.09;;;14.99
64947;BMP280;51469;52.150;4.682;2023-02-01T14:11:47;102058.31;;;14.55
64947;BMP280;51469;52.150;4.682;2023-02-01T14:19:29;102068.34;;;14.96
64947;BMP280;51469;52.150;4.682;2023-02-01T14:21:57;102069.28;;;15.11
64947;BMP280;51469;52.150;4.682;2023-02-01T14:26:56;102066.22;;;14.86
64947;BMP280;51469;52.150;4.682;2023-02-01T14:32:01;102081.47;;;15.06
64947;BMP280;51469;52.150;4.682;2023-02-01T14:37:24;102069.63;;;14.76
64947;BMP280;51469;52.150;4.682;2023-02-01T14:42:37;102079.28;;;14.89
64947;BMP280;51469;52.150;4.682;2023-02-01T14:47:45;102088.72;;;14.88
64947;BMP280;51469;52.150;4.682;2023-02-01T14:55:36;102099.09;;;14.39
64947;BMP280;51469;52.150;4.682;2023-02-01T15:03:56;102088.97;;;14.76
64947;BMP280;51469;52.150;4.682;2023-02-01T15:08:55;102084.56;;;14.68
64947;BMP280;51469;52.150;4.682;2023-02-01T15:11:21;102086.53;;;15.01
64947;BMP280;51469;52.150;4.682;2023-02-01T15:13:51;102093.22;;;14.70
64947;BMP280;51469;52.150;4.682;2023-02-01T15:16:21;102094.16;;;14.81
64947;BMP280;51469;52.150;4.682;2023-02-01T15:18:48;102094.38;;;14.69
64947;BMP280;51469;52.150;4.682;2023-02-01T15:21:20;102098.56;;;14.56
64947;BMP280;51469;52.150;4.682;2023-02-01T15:23:46;102101.00;;;14.61
64947;BMP280;51469;52.150;4.682;2023-02-01T15:26:33;102101.84;;;14.65
64947;BMP280;51469;52.150;4.682;2023-02-01T15:28:59;102113.97;;;14.57
64947;BMP280;51469;52.150;4.682;2023-02-01T15:31:57;102115.16;;;14.56
64947;BMP280;51469;52.150;4.682;2023-02-01T15:34:23;102104.09;;;14.56
64947;BMP280;51469;52.150;4.682;2023-02-01T15:36:49;102098.00;;;14.47
64947;BMP280;51469;52.150;4.682;2023-02-01T15:42:23;102123.09;;;14.35
64947;BMP280;51469;52.150;4.682;2023-02-01T15:44:49;102118.38;;;14.62
64947;BMP280;51469;52.150;4.682;2023-02-01T15:47:17;102108.69;;;14.45
64947;BMP280;51469;52.150;4.682;2023-02-01T15:49:45;102113.44;;;14.48
64947;BMP280;51469;52.150;4.682;2023-02-01T15:52:21;102107.78;;;14.41
64947;BMP280;51469;52.150;4.682;2023-02-01T15:54:50;102109.25;;;14.31
64947;BMP280;51469;52.150;4.682;2023-02-01T15:57:27;102108.13;;;14.62
64947;BMP280;51469;52.150;4.682;2023-02-01T15:59:58;102105.91;;;14.74
64947;BMP280;51469;52.150;4.682;2023-02-01T16:02:33;102108.56;;;14.38
64947;BMP280;51469;52.150;4.682;2023-02-01T16:04:59;102124.69;;;14.62
64947;BMP280;51469;52.150;4.682;2023-02-01T16:07:30;102116.63;;;14.50
64947;BMP280;51469;52.150;4.682;2023-02-01T16:09:59;102117.59;;;14.61
64947;BMP280;51469;52.150;4.682;2023-02-01T16:12:28;102124.59;;;14.55
64947;BMP280;51469;52.150;4.682;2023-02-01T16:14:54;102116.41;;;14.62
64947;BMP280;51469;52.150;4.682;2023-02-01T16:17:20;102130.72;;;14.97